sensor_id;sensor_type;location;lat;lon;timestamp;pressure;altitude;pressure_sealevel;temperature;humidity
10948;BME280;5526;42.070;24.752;2023-06-26T00:00:40;98475.13;;;23.65;91.09
10948;BME280;5526;42.070;24.752;2023-06-26T00:03:08;98464.56;;;23.56;91.22
10948;BME280;5526;42.070;24.752;2023-06-26T00:05:39;98458.00;;;23.54;91.23
10948;BME280;5526;42.070;24.752;2023-06-26T00:08:07;98456.00;;;23.51;91.95
10948;BME280;5526;42.070;24.752;2023-06-26T00:10:34;98463.00;;;23.55;91.49
10948;BME280;5526;42.070;24.752;2023-06-26T00:13:02;98477.81;;;23.65;91.52
10948;BME280;5526;42.070;24.752;2023-06-26T00:15:30;98457.63;;;23.55;91.21
10948;BME280;5526;42.070;24.752;2023-06-26T00:17:59;98458.44;;;23.56;91.47
10948;BME280;5526;42.070;24.752;2023-06-26T00:20:29;98451.81;;;23.53;91.41
10948;BME280;5526;42.070;24.752;2023-06-26T00:22:59;98425.66;;;23.31;91.48
10948;BME280;5526;42.070;24.752;2023-06-26T00:25:27;98450.38;;;23.56;91.18
10948;BME280;5526;42.070;24.752;2023-06-26T00:27:55;98473.91;;;23.62;91.17
10948;BME280;5526;42.070;24.752;2023-06-26T00:30:22;98463.88;;;23.59;91.06
10948;BME280;5526;42.070;24.752;2023-06-26T00:32:50;98410.50;;;23.23;90.79
10948;BME280;5526;42.070;24.752;2023-06-26T00:35:20;98476.75;;;23.69;90.73
10948;BME280;5526;42.070;24.752;2023-06-26T00:37:47;98461.31;;;23.47;91.32
10948;BME280;5526;42.070;24.752;2023-06-26T00:40:16;98469.94;;;23.56;90.94
10948;BME280;5526;42.070;24.752;2023-06-26T00:42:44;98473.75;;;23.55;90.93
10948;BME280;5526;42.070;24.752;2023-06-26T00:45:12;98458.50;;;23.44;91.27
10948;BME280;5526;42.070;24.752;2023-06-26T00:47:39;98474.56;;;23.56;91.78
10948;BME280;5526;42.070;24.752;2023-06-26T00:50:08;98472.09;;;23.51;91.52
10948;BME280;5526;42.070;24.752;2023-06-26T00:52:37;98405.47;;;23.06;92.14
10948;BME280;5526;42.070;24.752;2023-06-26T00:55:05;98481.31;;;23.50;92.50
10948;BME280;5526;42.070;24.752;2023-06-26T00:57:33;98476.91;;;23.42;92.82
10948;BME280;5526;42.070;24.752;2023-06-26T01:00:01;98460.63;;;23.35;92.89
10948;BME280;5526;42.070;24.752;2023-06-26T01:02:29;98462.72;;;23.26;93.51
10948;BME280;5526;42.070;24.752;2023-06-26T01:05:00;98478.72;;;23.38;93.60
10948;BME280;5526;42.070;24.752;2023-06-26T01:07:29;98467.53;;;23.36;93.49
10948;BME280;5526;42.070;24.752;2023-06-26T01:09:59;98442.09;;;23.14;93.45
10948;BME280;5526;42.070;24.752;2023-06-26T01:12:27;98437.16;;;23.16;93.65
10948;BME280;5526;42.070;24.752;2023-06-26T01:14:55;98436.38;;;23.16;93.47
10948;BME280;5526;42.070;24.752;2023-06-26T01:17:23;98435.25;;;23.17;93.25
10948;BME280;5526;42.070;24.752;2023-06-26T01:19:52;98454.84;;;23.33;93.42
10948;BME280;5526;42.070;24.752;2023-06-26T01:22:25;98436.47;;;23.19;93.42
10948;BME280;5526;42.070;24.752;2023-06-26T01:25:06;98457.19;;;23.34;93.07
10948;BME280;5526;42.070;24.752;2023-06-26T01:27:40;98440.19;;;23.15;93.72
10948;BME280;5526;42.070;24.752;2023-06-26T01:30:10;98466.09;;;23.23;93.86
10948;BME280;5526;42.070;24.752;2023-06-26T01:32:39;98402.28;;;22.85;93.88
10948;BME280;5526;42.070;24.752;2023-06-26T01:35:08;98459.03;;;23.18;94.52
10948;BME280;5526;42.070;24.752;2023-06-26T01:37:36;98441.50;;;23.05;94.02
10948;BME280;5526;42.070;24.752;2023-06-26T01:40:05;98464.00;;;23.16;94.75
10948;BME280;5526;42.070;24.752;2023-06-26T01:42:33;98451.44;;;23.05;94.67
10948;BME280;5526;42.070;24.752;2023-06-26T01:45:09;98421.94;;;22.89;94.54
10948;BME280;5526;42.070;24.752;2023-06-26T01:47:42;98449.47;;;23.02;95.02
10948;BME280;5526;42.070;24.752;2023-06-26T01:50:14;98445.72;;;23.06;95.07
10948;BME280;5526;42.070;24.752;2023-06-26T01:52:53;98414.41;;;22.79;95.53
10948;BME280;5526;42.070;24.752;2023-06-26T01:55:32;98446.34;;;23.00;95.73
10948;BME280;5526;42.070;24.752;2023-06-26T01:58:02;98443.31;;;23.01;95.84
10948;BME280;5526;42.070;24.752;2023-06-26T02:00:32;98441.41;;;23.02;95.48
10948;BME280;5526;42.070;24.752;2023-06-26T02:03:00;98465.66;;;23.05;95.62
10948;BME280;5526;42.070;24.752;2023-06-26T02:05:29;98465.91;;;23.00;96.39
10948;BME280;5526;42.070;24.752;2023-06-26T02:07:57;98464.09;;;23.04;96.10
10948;BME280;5526;42.070;24.752;2023-06-26T02:10:24;98444.28;;;22.93;96.19
10948;BME280;5526;42.070;24.752;2023-06-26T02:12:52;98417.53;;;22.66;96.34
10948;BME280;5526;42.070;24.752;2023-06-26T02:15:20;98437.34;;;22.77;96.54
10948;BME280;5526;42.070;24.752;2023-06-26T02:17:49;98464.72;;;22.98;96.71
10948;BME280;5526;42.070;24.752;2023-06-26T02:20:17;98451.19;;;22.79;97.07
10948;BME280;5526;42.070;24.752;2023-06-26T02:22:45;98449.03;;;22.84;97.45
10948;BME280;5526;42.070;24.752;2023-06-26T02:25:12;98412.06;;;22.62;97.42
10948;BME280;5526;42.070;24.752;2023-06-26T02:27:40;98393.63;;;22.45;97.83
10948;BME280;5526;42.070;24.752;2023-06-26T02:30:09;98462.97;;;22.90;98.14
10948;BME280;5526;42.070;24.752;2023-06-26T02:32:37;98461.50;;;22.92;97.60
10948;BME280;5526;42.070;24.752;2023-06-26T02:35:07;98430.09;;;22.77;97.34
10948;BME280;5526;42.070;24.752;2023-06-26T02:37:35;98464.47;;;22.87;97.56
10948;BME280;5526;42.070;24.752;2023-06-26T02:40:03;98409.38;;;22.62;97.24
10948;BME280;5526;42.070;24.752;2023-06-26T02:42:32;98404.19;;;22.54;97.83
10948;BME280;5526;42.070;24.752;2023-06-26T02:44:59;98441.69;;;22.81;97.45
10948;BME280;5526;42.070;24.752;2023-06-26T02:47:27;98452.31;;;22.93;97.78
10948;BME280;5526;42.070;24.752;2023-06-26T02:49:55;98456.13;;;22.92;97.68
10948;BME280;5526;42.070;24.752;2023-06-26T02:52:24;98452.16;;;22.86;97.33
10948;BME280;5526;42.070;24.752;2023-06-26T02:54:52;98462.19;;;22.89;97.28
10948;BME280;5526;42.070;24.752;2023-06-26T02:57:19;98430.75;;;22.74;97.07
10948;BME280;5526;42.070;24.752;2023-06-26T02:59:47;98445.16;;;22.82;97.04
10948;BME280;5526;42.070;24.752;2023-06-26T03:02:15;98444.69;;;22.80;97.01
10948;BME280;5526;42.070;24.752;2023-06-26T03:04:43;98409.53;;;22.54;96.95
10948;BME280;5526;42.070;24.752;2023-06-26T03:07:10;98443.75;;;22.72;97.30
10948;BME280;5526;42.070;24.752;2023-06-26T03:09:40;98473.38;;;22.91;97.38
10948;BME280;5526;42.070;24.752;2023-06-26T03:12:08;98429.38;;;22.65;97.60
10948;BME280;5526;42.070;24.752;2023-06-26T03:14:36;98459.31;;;22.82;97.80
10948;BME280;5526;42.070;24.752;2023-06-26T03:17:04;98469.22;;;22.94;97.54
10948;BME280;5526;42.070;24.752;2023-06-26T03:19:33;98437.69;;;22.75;97.18
10948;BME280;5526;42.070;24.752;2023-06-26T03:22:00;98449.38;;;22.83;96.87
10948;BME280;5526;42.070;24.752;2023-06-26T03:24:29;98458.03;;;22.92;96.59
10948;BME280;5526;42.070;24.752;2023-06-26T03:26:58;98478.03;;;23.10;95.83
10948;BME280;5526;42.070;24.752;2023-06-26T03:29:26;98459.88;;;23.03;95.98
10948;BME280;5526;42.070;24.752;2023-06-26T03:31:55;98480.03;;;23.13;96.01
10948;BME280;5526;42.070;24.752;2023-06-26T03:34:23;98476.84;;;23.23;95.89
10948;BME280;5526;42.070;24.752;2023-06-26T03:36:51;98482.56;;;23.21;96.23
10948;BME280;5526;42.070;24.752;2023-06-26T03:39:18;98486.53;;;23.27;95.43
10948;BME280;5526;42.070;24.752;2023-06-26T03:41:46;98481.59;;;23.29;95.20
10948;BME280;5526;42.070;24.752;2023-06-26T03:44:15;98467.41;;;23.29;94.91
10948;BME280;5526;42.070;24.752;2023-06-26T03:46:43;98465.94;;;23.31;94.66
10948;BME280;5526;42.070;24.752;2023-06-26T03:49:12;98467.66;;;23.39;93.71
10948;BME280;5526;42.070;24.752;2023-06-26T03:51:40;98473.94;;;23.47;93.82
10948;BME280;5526;42.070;24.752;2023-06-26T03:54:07;98489.44;;;23.53;93.16
10948;BME280;5526;42.070;24.752;2023-06-26T03:56:35;98490.34;;;23.76;92.92
10948;BME280;5526;42.070;24.752;2023-06-26T03:59:03;98493.00;;;23.92;92.16
10948;BME280;5526;42.070;24.752;2023-06-26T04:01:32;98474.97;;;23.92;91.33
10948;BME280;5526;42.070;24.752;2023-06-26T04:04:00;98447.19;;;23.88;90.91
10948;BME280;5526;42.070;24.752;2023-06-26T04:06:28;98467.19;;;24.06;90.47
10948;BME280;5526;42.070;24.752;2023-06-26T04:08:57;98475.97;;;24.22;89.46
10948;BME280;5526;42.070;24.752;2023-06-26T04:11:25;98395.50;;;23.76;89.15
10948;BME280;5526;42.070;24.752;2023-06-26T04:13:53;98463.31;;;24.23;89.54
10948;BME280;5526;42.070;24.752;2023-06-26T04:16:20;98466.91;;;24.30;89.14
10948;BME280;5526;42.070;24.752;2023-06-26T04:18:52;98478.28;;;24.43;89.25
10948;BME280;5526;42.070;24.752;2023-06-26T04:21:22;98444.34;;;24.16;89.41
10948;BME280;5526;42.070;24.752;2023-06-26T04:23:51;98444.34;;;24.16;89.55
10948;BME280;5526;42.070;24.752;2023-06-26T04:26:18;98413.47;;;23.91;89.11
10948;BME280;5526;42.070;24.752;2023-06-26T04:28:46;98468.19;;;24.36;88.39
10948;BME280;5526;42.070;24.752;2023-06-26T04:31:14;98469.28;;;24.35;88.30
10948;BME280;5526;42.070;24.752;2023-06-26T04:33:41;98399.44;;;23.97;87.96
10948;BME280;5526;42.070;24.752;2023-06-26T04:36:11;98449.03;;;24.41;87.20
10948;BME280;5526;42.070;24.752;2023-06-26T04:38:38;98443.13;;;24.32;87.74
10948;BME280;5526;42.070;24.752;2023-06-26T04:41:06;98465.59;;;24.63;86.78
10948;BME280;5526;42.070;24.752;2023-06-26T04:43:33;98428.22;;;24.38;85.50
10948;BME280;5526;42.070;24.752;2023-06-26T04:46:02;98460.03;;;24.75;84.51
10948;BME280;5526;42.070;24.752;2023-06-26T04:48:30;98486.06;;;24.90;84.24
10948;BME280;5526;42.070;24.752;2023-06-26T04:50:58;98448.72;;;24.66;83.94
10948;BME280;5526;42.070;24.752;2023-06-26T04:53:28;98448.53;;;25.00;82.81
10948;BME280;5526;42.070;24.752;2023-06-26T04:55:55;98494.06;;;25.54;81.62
10948;BME280;5526;42.070;24.752;2023-06-26T04:58:23;98471.50;;;25.65;79.95
10948;BME280;5526;42.070;24.752;2023-06-26T05:00:51;98498.53;;;25.98;78.78
10948;BME280;5526;42.070;24.752;2023-06-26T05:03:19;98437.16;;;25.62;77.93
10948;BME280;5526;42.070;24.752;2023-06-26T05:05:48;98490.25;;;26.14;77.66
10948;BME280;5526;42.070;24.752;2023-06-26T05:08:18;98426.22;;;26.07;75.71
10948;BME280;5526;42.070;24.752;2023-06-26T05:10:47;98474.84;;;26.51;74.90
10948;BME280;5526;42.070;24.752;2023-06-26T05:13:15;98505.13;;;26.67;74.21
10948;BME280;5526;42.070;24.752;2023-06-26T05:15:45;98490.09;;;26.33;73.72
10948;BME280;5526;42.070;24.752;2023-06-26T05:18:13;98470.16;;;26.41;73.48
10948;BME280;5526;42.070;24.752;2023-06-26T05:20:41;98490.59;;;26.75;72.42
10948;BME280;5526;42.070;24.752;2023-06-26T05:23:13;98519.47;;;26.71;72.07
10948;BME280;5526;42.070;24.752;2023-06-26T05:25:44;98520.41;;;26.89;70.96
10948;BME280;5526;42.070;24.752;2023-06-26T05:28:14;98507.97;;;26.81;70.76
10948;BME280;5526;42.070;24.752;2023-06-26T05:30:45;98512.03;;;26.61;71.48
10948;BME280;5526;42.070;24.752;2023-06-26T05:33:14;98472.59;;;26.20;72.84
10948;BME280;5526;42.070;24.752;2023-06-26T05:35:47;98500.66;;;26.45;72.28
10948;BME280;5526;42.070;24.752;2023-06-26T05:38:32;98520.66;;;26.73;71.25
10948;BME280;5526;42.070;24.752;2023-06-26T05:41:02;98523.53;;;26.58;71.39
10948;BME280;5526;42.070;24.752;2023-06-26T05:43:39;98511.88;;;26.50;69.95
10948;BME280;5526;42.070;24.752;2023-06-26T05:46:09;98488.13;;;26.30;70.98
10948;BME280;5526;42.070;24.752;2023-06-26T05:48:42;98513.81;;;26.50;71.00
10948;BME280;5526;42.070;24.752;2023-06-26T05:51:13;98497.25;;;26.51;69.67
10948;BME280;5526;42.070;24.752;2023-06-26T05:53:41;98505.59;;;26.06;70.58
10948;BME280;5526;42.070;24.752;2023-06-26T05:56:10;98504.16;;;26.49;69.51
10948;BME280;5526;42.070;24.752;2023-06-26T05:58:41;98515.09;;;26.26;70.20
10948;BME280;5526;42.070;24.752;2023-06-26T06:01:09;98502.88;;;26.36;70.04
10948;BME280;5526;42.070;24.752;2023-06-26T06:03:37;98514.09;;;26.74;68.98
10948;BME280;5526;42.070;24.752;2023-06-26T06:06:04;98526.91;;;26.84;68.93
10948;BME280;5526;42.070;24.752;2023-06-26T06:08:38;98494.91;;;26.86;66.97
10948;BME280;5526;42.070;24.752;2023-06-26T06:11:07;98505.66;;;26.79;67.80
10948;BME280;5526;42.070;24.752;2023-06-26T06:13:35;98525.38;;;27.23;67.10
10948;BME280;5526;42.070;24.752;2023-06-26T06:16:11;98481.16;;;27.02;65.47
10948;BME280;5526;42.070;24.752;2023-06-26T06:18:39;98514.78;;;27.08;66.45
10948;BME280;5526;42.070;24.752;2023-06-26T06:21:07;98505.91;;;26.64;66.91
10948;BME280;5526;42.070;24.752;2023-06-26T06:23:34;98529.41;;;27.03;67.70
10948;BME280;5526;42.070;24.752;2023-06-26T06:26:02;98536.34;;;27.01;67.53
10948;BME280;5526;42.070;24.752;2023-06-26T06:28:30;98516.25;;;26.98;66.48
10948;BME280;5526;42.070;24.752;2023-06-26T06:30:57;98546.13;;;26.76;67.59
10948;BME280;5526;42.070;24.752;2023-06-26T06:33:26;98543.97;;;26.26;70.86
10948;BME280;5526;42.070;24.752;2023-06-26T06:35:54;98529.19;;;26.13;70.59
10948;BME280;5526;42.070;24.752;2023-06-26T06:38:22;98540.19;;;26.63;70.23
10948;BME280;5526;42.070;24.752;2023-06-26T06:40:50;98527.84;;;26.62;69.18
10948;BME280;5526;42.070;24.752;2023-06-26T06:43:18;98525.09;;;26.26;68.93
10948;BME280;5526;42.070;24.752;2023-06-26T06:45:46;98498.84;;;26.56;67.57
10948;BME280;5526;42.070;24.752;2023-06-26T06:48:14;98541.47;;;27.13;66.60
10948;BME280;5526;42.070;24.752;2023-06-26T06:50:43;98525.50;;;27.37;65.48
10948;BME280;5526;42.070;24.752;2023-06-26T06:53:11;98516.44;;;27.19;65.07
10948;BME280;5526;42.070;24.752;2023-06-26T06:55:39;98535.88;;;26.92;66.24
10948;BME280;5526;42.070;24.752;2023-06-26T06:58:06;98515.19;;;27.10;65.43
10948;BME280;5526;42.070;24.752;2023-06-26T07:00:34;98514.38;;;27.06;65.94
10948;BME280;5526;42.070;24.752;2023-06-26T07:03:02;98524.38;;;26.62;68.22
10948;BME280;5526;42.070;24.752;2023-06-26T07:05:30;98506.00;;;26.74;67.21
10948;BME280;5526;42.070;24.752;2023-06-26T07:07:59;98524.44;;;27.09;66.36
10948;BME280;5526;42.070;24.752;2023-06-26T07:10:27;98538.13;;;26.86;67.51
10948;BME280;5526;42.070;24.752;2023-06-26T07:12:55;98520.31;;;26.78;66.23
10948;BME280;5526;42.070;24.752;2023-06-26T07:15:22;98532.97;;;26.71;67.55
10948;BME280;5526;42.070;24.752;2023-06-26T07:17:50;98547.16;;;27.01;67.55
10948;BME280;5526;42.070;24.752;2023-06-26T07:20:18;98485.03;;;26.61;65.75
10948;BME280;5526;42.070;24.752;2023-06-26T07:22:46;98535.22;;;27.05;65.19
10948;BME280;5526;42.070;24.752;2023-06-26T07:25:15;98514.38;;;27.46;63.08
10948;BME280;5526;42.070;24.752;2023-06-26T07:27:43;98531.56;;;27.81;63.15
10948;BME280;5526;42.070;24.752;2023-06-26T07:30:11;98482.00;;;27.60;61.83
10948;BME280;5526;42.070;24.752;2023-06-26T07:32:39;98512.59;;;27.74;61.32
10948;BME280;5526;42.070;24.752;2023-06-26T07:35:08;98516.44;;;27.70;62.28
10948;BME280;5526;42.070;24.752;2023-06-26T07:37:36;98516.50;;;27.77;62.05
10948;BME280;5526;42.070;24.752;2023-06-26T07:40:04;98518.75;;;27.68;61.38
10948;BME280;5526;42.070;24.752;2023-06-26T07:42:34;98504.59;;;27.92;59.74
10948;BME280;5526;42.070;24.752;2023-06-26T07:45:02;98538.44;;;28.37;59.49
10948;BME280;5526;42.070;24.752;2023-06-26T07:47:35;98501.78;;;27.71;61.01
10948;BME280;5526;42.070;24.752;2023-06-26T07:50:04;98520.75;;;27.78;60.96
10948;BME280;5526;42.070;24.752;2023-06-26T07:52:32;98506.13;;;27.86;60.18
10948;BME280;5526;42.070;24.752;2023-06-26T07:55:00;98542.88;;;27.90;62.26
10948;BME280;5526;42.070;24.752;2023-06-26T07:57:29;98497.28;;;27.89;61.49
10948;BME280;5526;42.070;24.752;2023-06-26T07:59:59;98515.25;;;28.39;59.13
10948;BME280;5526;42.070;24.752;2023-06-26T08:02:27;98491.38;;;28.69;56.91
10948;BME280;5526;42.070;24.752;2023-06-26T08:04:55;98482.91;;;28.88;55.74
10948;BME280;5526;42.070;24.752;2023-06-26T08:07:22;98538.28;;;29.47;53.12
10948;BME280;5526;42.070;24.752;2023-06-26T08:09:50;98501.50;;;29.00;54.06
10948;BME280;5526;42.070;24.752;2023-06-26T08:12:18;98538.28;;;29.08;53.68
10948;BME280;5526;42.070;24.752;2023-06-26T08:14:46;98543.75;;;29.22;54.88
10948;BME280;5526;42.070;24.752;2023-06-26T08:17:15;98488.63;;;28.52;54.25
10948;BME280;5526;42.070;24.752;2023-06-26T08:19:43;98522.38;;;28.89;55.01
10948;BME280;5526;42.070;24.752;2023-06-26T08:22:11;98482.88;;;28.67;55.58
10948;BME280;5526;42.070;24.752;2023-06-26T08:24:38;98521.25;;;29.22;55.82
10948;BME280;5526;42.070;24.752;2023-06-26T08:27:06;98522.44;;;29.45;55.20
10948;BME280;5526;42.070;24.752;2023-06-26T08:29:34;98517.78;;;29.21;55.18
10948;BME280;5526;42.070;24.752;2023-06-26T08:32:02;98518.88;;;28.71;55.53
10948;BME280;5526;42.070;24.752;2023-06-26T08:34:31;98522.13;;;28.12;56.81
10948;BME280;5526;42.070;24.752;2023-06-26T08:36:59;98510.06;;;27.95;56.87
10948;BME280;5526;42.070;24.752;2023-06-26T08:39:26;98509.00;;;28.21;56.97
10948;BME280;5526;42.070;24.752;2023-06-26T08:41:55;98507.91;;;28.40;56.79
10948;BME280;5526;42.070;24.752;2023-06-26T08:44:23;98504.09;;;28.48;55.53
10948;BME280;5526;42.070;24.752;2023-06-26T08:46:51;98521.41;;;28.26;55.76
10948;BME280;5526;42.070;24.752;2023-06-26T08:49:21;98548.88;;;28.31;54.46
10948;BME280;5526;42.070;24.752;2023-06-26T08:51:57;98512.06;;;28.13;54.97
10948;BME280;5526;42.070;24.752;2023-06-26T08:54:33;98487.53;;;27.81;55.87
10948;BME280;5526;42.070;24.752;2023-06-26T08:57:02;98506.47;;;27.81;56.41
10948;BME280;5526;42.070;24.752;2023-06-26T08:59:31;98470.44;;;27.66;58.64
10948;BME280;5526;42.070;24.752;2023-06-26T09:01:59;98519.84;;;28.25;59.50
10948;BME280;5526;42.070;24.752;2023-06-26T09:04:28;98515.94;;;28.15;60.23
10948;BME280;5526;42.070;24.752;2023-06-26T09:07:00;98510.59;;;28.29;61.06
10948;BME280;5526;42.070;24.752;2023-06-26T09:09:28;98541.25;;;28.51;62.27
10948;BME280;5526;42.070;24.752;2023-06-26T09:11:55;98517.66;;;28.58;60.92
10948;BME280;5526;42.070;24.752;2023-06-26T09:14:24;98528.53;;;28.76;61.22
10948;BME280;5526;42.070;24.752;2023-06-26T09:16:51;98510.72;;;28.68;62.23
10948;BME280;5526;42.070;24.752;2023-06-26T09:19:19;98522.38;;;28.93;61.80
10948;BME280;5526;42.070;24.752;2023-06-26T09:21:49;98486.00;;;28.94;61.81
10948;BME280;5526;42.070;24.752;2023-06-26T09:24:19;98513.50;;;29.48;60.91
10948;BME280;5526;42.070;24.752;2023-06-26T09:26:48;98515.44;;;29.72;59.64
10948;BME280;5526;42.070;24.752;2023-06-26T09:29:17;98475.91;;;29.64;60.27
10948;BME280;5526;42.070;24.752;2023-06-26T09:31:46;98462.75;;;29.59;58.55
10948;BME280;5526;42.070;24.752;2023-06-26T09:34:15;98494.84;;;29.89;56.98
10948;BME280;5526;42.070;24.752;2023-06-26T09:36:42;98484.34;;;30.01;56.58
10948;BME280;5526;42.070;24.752;2023-06-26T09:39:12;98511.81;;;30.21;57.90
10948;BME280;5526;42.070;24.752;2023-06-26T09:41:43;98517.94;;;30.39;56.73
10948;BME280;5526;42.070;24.752;2023-06-26T09:44:12;98502.44;;;30.36;56.40
10948;BME280;5526;42.070;24.752;2023-06-26T09:46:40;98518.09;;;30.00;57.83
10948;BME280;5526;42.070;24.752;2023-06-26T09:49:09;98476.75;;;29.26;54.54
10948;BME280;5526;42.070;24.752;2023-06-26T09:51:38;98517.00;;;29.49;55.49
10948;BME280;5526;42.070;24.752;2023-06-26T09:54:07;98511.59;;;29.03;56.70
10948;BME280;5526;42.070;24.752;2023-06-26T09:56:35;98492.03;;;27.09;73.58
10948;BME280;5526;42.070;24.752;2023-06-26T09:59:05;98538.06;;;24.55;89.71
10948;BME280;5526;42.070;24.752;2023-06-26T10:01:36;98543.91;;;24.77;91.17
10948;BME280;5526;42.070;24.752;2023-06-26T10:04:06;98506.94;;;24.35;91.71
10948;BME280;5526;42.070;24.752;2023-06-26T10:06:35;98461.00;;;23.87;93.34
10948;BME280;5526;42.070;24.752;2023-06-26T10:09:04;98500.72;;;24.12;92.31
10948;BME280;5526;42.070;24.752;2023-06-26T10:11:37;98492.59;;;24.66;87.94
10948;BME280;5526;42.070;24.752;2023-06-26T10:14:11;98500.97;;;25.06;88.80
10948;BME280;5526;42.070;24.752;2023-06-26T10:16:40;98499.09;;;25.10;94.55
10948;BME280;5526;42.070;24.752;2023-06-26T10:19:10;98515.22;;;25.55;98.11
10948;BME280;5526;42.070;24.752;2023-06-26T10:21:39;98483.34;;;25.61;100.00
10948;BME280;5526;42.070;24.752;2023-06-26T10:24:08;98507.09;;;25.78;100.00
10948;BME280;5526;42.070;24.752;2023-06-26T10:26:43;98472.06;;;25.78;100.00
10948;BME280;5526;42.070;24.752;2023-06-26T10:29:13;98518.44;;;26.20;100.00
10948;BME280;5526;42.070;24.752;2023-06-26T10:31:48;98504.03;;;26.38;100.00
10948;BME280;5526;42.070;24.752;2023-06-26T10:34:18;98499.25;;;26.25;100.00
10948;BME280;5526;42.070;24.752;2023-06-26T10:36:46;98515.91;;;26.63;100.00
10948;BME280;5526;42.070;24.752;2023-06-26T10:39:17;98516.50;;;26.83;100.00
10948;BME280;5526;42.070;24.752;2023-06-26T10:41:45;98469.38;;;26.80;100.00
10948;BME280;5526;42.070;24.752;2023-06-26T10:44:16;98456.84;;;27.02;100.00
10948;BME280;5526;42.070;24.752;2023-06-26T10:46:50;98504.03;;;27.62;100.00
10948;BME280;5526;42.070;24.752;2023-06-26T10:49:20;98453.34;;;27.48;100.00
10948;BME280;5526;42.070;24.752;2023-06-26T10:51:48;98486.56;;;28.17;100.00
10948;BME280;5526;42.070;24.752;2023-06-26T10:54:17;98475.13;;;28.59;97.05
10948;BME280;5526;42.070;24.752;2023-06-26T10:56:45;98487.19;;;29.07;93.15
10948;BME280;5526;42.070;24.752;2023-06-26T10:59:19;98443.41;;;29.36;85.92
10948;BME280;5526;42.070;24.752;2023-06-26T11:01:57;98483.63;;;29.87;77.92
10948;BME280;5526;42.070;24.752;2023-06-26T11:04:43;98446.38;;;29.87;79.35
10948;BME280;5526;42.070;24.752;2023-06-26T11:07:19;98471.84;;;30.28;76.11
10948;BME280;5526;42.070;24.752;2023-06-26T11:09:58;98468.94;;;30.60;74.82
10948;BME280;5526;42.070;24.752;2023-06-26T11:12:39;98480.94;;;31.20;70.72
10948;BME280;5526;42.070;24.752;2023-06-26T11:15:10;98482.47;;;31.66;68.43
10948;BME280;5526;42.070;24.752;2023-06-26T11:17:41;98432.44;;;31.56;67.20
10948;BME280;5526;42.070;24.752;2023-06-26T11:20:10;98468.50;;;32.01;63.36
10948;BME280;5526;42.070;24.752;2023-06-26T11:22:39;98415.66;;;31.61;66.22
10948;BME280;5526;42.070;24.752;2023-06-26T11:25:11;98464.25;;;32.00;62.31
10948;BME280;5526;42.070;24.752;2023-06-26T11:27:39;98456.78;;;32.37;54.54
10948;BME280;5526;42.070;24.752;2023-06-26T11:30:23;98413.84;;;32.15;49.79
10948;BME280;5526;42.070;24.752;2023-06-26T11:32:52;98418.84;;;32.20;50.36
10948;BME280;5526;42.070;24.752;2023-06-26T11:35:22;98429.41;;;32.44;50.18
10948;BME280;5526;42.070;24.752;2023-06-26T11:37:55;98441.75;;;31.92;51.36
10948;BME280;5526;42.070;24.752;2023-06-26T11:40:26;98467.34;;;31.61;51.38
10948;BME280;5526;42.070;24.752;2023-06-26T11:42:57;98448.94;;;30.94;53.26
10948;BME280;5526;42.070;24.752;2023-06-26T11:45:28;98434.44;;;30.53;55.39
10948;BME280;5526;42.070;24.752;2023-06-26T11:47:56;98467.00;;;30.60;57.25
10948;BME280;5526;42.070;24.752;2023-06-26T11:50:24;98415.88;;;30.45;64.76
10948;BME280;5526;42.070;24.752;2023-06-26T11:52:55;98394.59;;;30.36;63.63
10948;BME280;5526;42.070;24.752;2023-06-26T11:55:23;98447.59;;;30.62;69.09
10948;BME280;5526;42.070;24.752;2023-06-26T11:57:54;98450.59;;;30.78;66.60
10948;BME280;5526;42.070;24.752;2023-06-26T12:00:26;98401.97;;;30.36;59.43
10948;BME280;5526;42.070;24.752;2023-06-26T12:02:54;98442.94;;;30.62;59.72
10948;BME280;5526;42.070;24.752;2023-06-26T12:05:21;98455.47;;;30.42;55.66
10948;BME280;5526;42.070;24.752;2023-06-26T12:07:50;98465.19;;;30.33;61.50
10948;BME280;5526;42.070;24.752;2023-06-26T12:10:19;98466.25;;;29.49;60.07
10948;BME280;5526;42.070;24.752;2023-06-26T12:12:47;98471.31;;;29.26;61.89
10948;BME280;5526;42.070;24.752;2023-06-26T12:15:16;98438.78;;;28.74;64.95
10948;BME280;5526;42.070;24.752;2023-06-26T12:17:45;98464.28;;;28.69;67.28
10948;BME280;5526;42.070;24.752;2023-06-26T12:20:19;98469.69;;;28.55;70.54
10948;BME280;5526;42.070;24.752;2023-06-26T12:22:48;98441.78;;;28.34;69.26
10948;BME280;5526;42.070;24.752;2023-06-26T12:25:21;98425.13;;;28.35;69.71
10948;BME280;5526;42.070;24.752;2023-06-26T12:27:50;98483.22;;;28.62;72.53
10948;BME280;5526;42.070;24.752;2023-06-26T12:30:17;98469.28;;;28.46;74.96
10948;BME280;5526;42.070;24.752;2023-06-26T12:32:47;98480.88;;;28.50;76.92
10948;BME280;5526;42.070;24.752;2023-06-26T12:35:14;98488.19;;;28.39;77.40
10948;BME280;5526;42.070;24.752;2023-06-26T12:37:43;98483.50;;;28.22;77.19
10948;BME280;5526;42.070;24.752;2023-06-26T12:40:17;98480.06;;;28.39;75.71
10948;BME280;5526;42.070;24.752;2023-06-26T12:42:47;98481.22;;;28.38;75.73
10948;BME280;5526;42.070;24.752;2023-06-26T12:45:15;98480.53;;;28.55;74.34
10948;BME280;5526;42.070;24.752;2023-06-26T12:47:43;98458.09;;;28.65;71.99
10948;BME280;5526;42.070;24.752;2023-06-26T12:50:12;98472.84;;;29.03;71.25
10948;BME280;5526;42.070;24.752;2023-06-26T12:52:40;98448.09;;;29.18;70.83
10948;BME280;5526;42.070;24.752;2023-06-26T12:55:08;98453.81;;;29.55;69.47
10948;BME280;5526;42.070;24.752;2023-06-26T12:57:36;98449.97;;;29.63;69.14
10948;BME280;5526;42.070;24.752;2023-06-26T13:00:05;98491.97;;;30.38;66.98
10948;BME280;5526;42.070;24.752;2023-06-26T13:02:33;98463.84;;;30.72;64.53
10948;BME280;5526;42.070;24.752;2023-06-26T13:05:01;98456.66;;;30.99;64.13
10948;BME280;5526;42.070;24.752;2023-06-26T13:07:31;98496.31;;;31.82;58.35
10948;BME280;5526;42.070;24.752;2023-06-26T13:09:58;98475.19;;;31.55;57.76